Linzy — SIRU — position and weather

sailwx.info

Track history (hours):
 
Tides and Currents Weather Stations Pressure Air Temp Water Temp Dewpoint Dewpoint Depression Visibility Wind Speed Wind Dir Waves Ship Positions

Linzy

Last reported at 2015-Mar-02 06:20 UTC. Time now 2015-Mar-02 07:27 UTC.
Position N 55°33' E 014°22'.

Length 15 m.

Type: Fishing. MMSI: 265507290.

Date/timePositionNaut miles runAvg speedWind from/ knotsBaromVisibWave heightAir tempDewpointWater temp
2015-Mar-02 06:20N 55°33' E 014°22'0 0.0
2015-Mar-02 05:26N 55°33' E 014°22'0 0.0
2015-Mar-02 04:32N 55°33' E 014°22'0 0.0
2015-Mar-02 03:26N 55°33' E 014°22'0 0.0
2015-Mar-02 02:32N 55°33' E 014°22'0 0.0
2015-Mar-02 01:32N 55°33' E 014°22'0 0.0
2015-Mar-02 00:20N 55°33' E 014°22'0 0.0
2015-Mar-01 23:26N 55°33' E 014°22'0 0.0
2015-Mar-01 22:32N 55°33' E 014°22'0 0.0
2015-Mar-01 21:14N 55°33' E 014°21'0 0.0
2015-Mar-01 20:32N 55°33' E 014°21'0 0.0
2015-Mar-01 19:32N 55°33' E 014°22'0 0.0
2015-Mar-01 18:32N 55°33' E 014°22'0 0.0
2015-Mar-01 16:08N 55°33' E 014°22'0 0.0
2015-Mar-01 15:26N 55°33' E 014°22'0 0.0
2015-Mar-01 14:20N 55°33' E 014°21'0 0.0
2015-Mar-01 13:26N 55°33' E 014°22'0 0.0
2015-Mar-01 10:20N 55°33' E 014°22'0 0.0
2015-Mar-01 09:32N 55°33' E 014°22'0 0.0
2015-Mar-01 08:14N 55°33' E 014°22'0 0.0
2015-Mar-01 07:32N 55°33' E 014°22'0 0.0
2015-Mar-01 06:32N 55°33' E 014°22'0 0.0
2015-Mar-01 05:26N 55°33' E 014°22'0 0.0
2015-Mar-01 04:32N 55°33' E 014°22'0 0.0
2015-Mar-01 02:26N 55°33' E 014°22'0 0.0
2015-Mar-01 01:14N 55°33' E 014°21'0 0.0
2015-Mar-01 00:26N 55°33' E 014°22'0 0.0
2015-Feb-28 23:32N 55°33' E 014°22'0 0.0
2015-Feb-28 22:26N 55°33' E 014°22'0 0.0
2015-Feb-28 20:32N 55°33' E 014°22'0 0.0
2015-Feb-28 19:26N 55°33' E 014°21'0 0.0
2015-Feb-28 17:20N 55°33' E 014°22'0 0.0
2015-Feb-28 16:32N 55°33' E 014°22'0 0.0
2015-Feb-28 15:32N 55°33' E 014°22'0 0.0
2015-Feb-28 14:32N 55°33' E 014°22'0 0.0
2015-Feb-28 13:32N 55°33' E 014°22'0 0.0
2015-Feb-28 12:26N 55°33' E 014°22'0 0.0
2015-Feb-28 11:32N 55°33' E 014°22'0 0.0
2015-Feb-28 02:26N 55°33' E 014°22'0 0.0
2015-Feb-28 01:32N 55°33' E 014°22'0 0.0
2015-Feb-27 21:32N 55°33' E 014°21'0 0.0
2015-Feb-27 20:32N 55°33' E 014°21'0 0.0
2015-Feb-27 19:26N 55°33' E 014°22'0 0.0
2015-Feb-27 18:32N 55°33' E 014°21'3 2.5
2015-Feb-27 17:31N 55°34' E 014°26'6 5.8
2015-Feb-27 16:25N 55°35' E 014°37'2 2.4
2015-Feb-27 15:33N 55°34' E 014°40'3 3.1
2015-Feb-27 14:31N 55°32' E 014°45'3 3.2
2015-Feb-27 13:32N 55°31' E 014°50'3 3.2
2015-Feb-27 12:27N 55°29' E 014°56'1 0.6
2015-Feb-27 10:29N 55°29' E 014°54'3 2.9
2015-Feb-27 09:30N 55°30' E 014°49'3 2.9
2015-Feb-27 08:32N 55°31' E 014°45'3 2.9
2015-Feb-27 07:31N 55°33' E 014°40'3 2.8
2015-Feb-27 06:33N 55°34' E 014°37'5 4.5
2015-Feb-27 05:31N 55°35' E 014°28'4 4.0
2015-Feb-27 04:30N 55°33' E 014°21'0 0.0
2015-Feb-27 03:30N 55°33' E 014°21'0 0.0
2015-Feb-27 02:30N 55°33' E 014°21'0 0.0
2015-Feb-27 01:30N 55°33' E 014°21'0 0.0
2015-Feb-27 00:30N 55°33' E 014°21'0 0.0
2015-Feb-26 23:30N 55°33' E 014°21'0 0.0
2015-Feb-26 22:30N 55°33' E 014°21'0 0.0
2015-Feb-26 21:30N 55°33' E 014°21'0 0.0
2015-Feb-26 20:30N 55°33' E 014°21'0 0.0
2015-Feb-26 19:30N 55°33' E 014°21'0 0.0
2015-Feb-26 18:30N 55°33' E 014°21'3 2.8
2015-Feb-26 17:32N 55°34' E 014°26'6 5.4
2015-Feb-26 16:30N 55°36' E 014°36'2 2.6
2015-Feb-26 15:33N 55°34' E 014°39'3 3.1
2015-Feb-26 14:33N 55°32' E 014°43'3 3.1
2015-Feb-26 13:33N 55°31' E 014°49'3 3.2
2015-Feb-26 12:32N 55°30' E 014°54'3 2.8
2015-Feb-26 11:27N 55°31' E 014°59'2 2.0
2015-Feb-26 10:23N 55°29' E 014°56'2 2.8
2015-Feb-26 09:33N 55°30' E 014°52'3 3.0
2015-Feb-26 08:31N 55°31' E 014°47'3 3.2
2015-Feb-26 07:32N 55°32' E 014°42'3 2.9
2015-Feb-26 06:33N 55°34' E 014°38'4 4.2
2015-Feb-26 05:33N 55°35' E 014°31'6 4.8
2015-Feb-26 04:23N 55°33' E 014°21'0 0.0
2015-Feb-26 03:29N 55°33' E 014°21'0 0.0
2015-Feb-26 02:29N 55°33' E 014°21'0 0.0
2015-Feb-25 01:29N 55°33' E 014°21'0 0.0
2015-Feb-25 00:23N 55°33' E 014°21'0 0.0
2015-Feb-24 23:23N 55°33' E 014°21'0 0.0
2015-Feb-24 22:23N 55°33' E 014°21'0 0.0
2015-Feb-24 21:29N 55°33' E 014°21'0 0.0
2015-Feb-24 20:29N 55°33' E 014°21'0 0.0
2015-Feb-24 19:29N 55°33' E 014°21'0 0.0
2015-Feb-24 18:29N 55°33' E 014°21'0 0.0
2015-Feb-24 17:29N 55°33' E 014°21'0 0.0
2015-Feb-24 16:29N 55°33' E 014°21'0 0.0
2015-Feb-24 15:29N 55°33' E 014°21'0 0.0
2015-Feb-24 14:29N 55°33' E 014°21'0 0.0
2015-Feb-24 13:29N 55°33' E 014°21'0 0.0
2015-Feb-24 12:29N 55°33' E 014°21'0 0.0
2015-Feb-24 11:17N 55°33' E 014°21'0 0.0
2015-Feb-24 10:11N 55°33' E 014°21'0 0.0
2015-Feb-24 09:17N 55°33' E 014°21'0 0.0
2015-Feb-24 08:29N 55°33' E 014°21'0 0.0
2015-Feb-24 07:17N 55°33' E 014°21'0 0.0
2015-Feb-24 06:23N 55°33' E 014°21'0 0.0
2015-Feb-24 05:23N 55°33' E 014°21'0 0.0
2015-Feb-24 04:29N 55°33' E 014°21'0 0.0
2015-Feb-24 03:29N 55°33' E 014°21'0 0.0
2015-Feb-24 02:23N 55°33' E 014°21'0 0.0
2015-Feb-23 22:23N 55°33' E 014°21'0 0.0
2015-Feb-23 21:23N 55°33' E 014°21'0 0.0
2015-Feb-23 20:29N 55°33' E 014°21'0 0.0
2015-Feb-23 19:23N 55°33' E 014°21'0 0.0
2015-Feb-23 18:29N 55°33' E 014°21'0 0.0
2015-Feb-23 17:11N 55°33' E 014°21'0 0.0
2015-Feb-23 16:23N 55°33' E 014°21'0 0.0
2015-Feb-23 15:17N 55°33' E 014°21'0 0.0
2015-Feb-23 14:17N 55°33' E 014°21'0 0.0
2015-Feb-23 12:23N 55°33' E 014°21'0 0.0
2015-Feb-23 11:29N 55°33' E 014°21'0 0.0
2015-Feb-23 10:29N 55°33' E 014°21'0 0.0
2015-Feb-23 09:29N 55°33' E 014°21'0 0.0
2015-Feb-23 08:29N 55°33' E 014°21'0 0.0
2015-Feb-23 07:29N 55°33' E 014°21'0 0.0
2015-Feb-23 06:23N 55°33' E 014°21'0 0.0
2015-Feb-23 05:29N 55°33' E 014°21'0 0.0
2015-Feb-23 04:29N 55°33' E 014°21'0 0.0
2015-Feb-23 03:29N 55°33' E 014°21'0 0.0
2015-Feb-23 02:29N 55°33' E 014°21'0 0.0
2015-Feb-23 01:29N 55°33' E 014°21'0 0.0
2015-Feb-23 00:29N 55°33' E 014°21'0 0.0
2015-Feb-22 23:23N 55°33' E 014°21'0 0.0
2015-Feb-22 22:23N 55°33' E 014°21'0 0.0
2015-Feb-22 21:23N 55°33' E 014°21'0 0.0
2015-Feb-22 20:29N 55°33' E 014°21'0 0.0
2015-Feb-22 19:29N 55°33' E 014°21'0 0.0
2015-Feb-22 18:29N 55°33' E 014°21'0 0.0
2015-Feb-22 17:29N 55°33' E 014°21'0 0.0
2015-Feb-22 16:29N 55°33' E 014°21'0 0.0
2015-Feb-22 15:29N 55°33' E 014°21'0 0.0
2015-Feb-22 14:29N 55°33' E 014°21'0 0.0
2015-Feb-22 13:29N 55°33' E 014°21'0 0.0
2015-Feb-22 12:23N 55°33' E 014°21'0 0.0
2015-Feb-22 11:29N 55°33' E 014°21'0 0.0
2015-Feb-22 10:30N 55°33' E 014°21'0 0.0
2015-Feb-22 09:23N 55°33' E 014°21'0 0.0
2015-Feb-22 08:29N 55°33' E 014°21'0 0.0
2015-Feb-22 07:30N 55°33' E 014°21'0 0.0
2015-Feb-22 06:24N 55°33' E 014°21'0 0.0
2015-Feb-22 05:30N 55°33' E 014°21'0 0.0
2015-Feb-22 04:30N 55°33' E 014°21'0 0.0
2015-Feb-22 03:30N 55°33' E 014°21'0 0.0
2015-Feb-22 02:30N 55°33' E 014°21'0 0.0
2015-Feb-21 01:30N 55°33' E 014°21'0 0.0
2015-Feb-21 00:30N 55°33' E 014°21'0 0.0
2015-Feb-20 23:30N 55°33' E 014°21'0 0.0
2015-Feb-20 22:24N 55°33' E 014°21'0 0.0
2015-Feb-20 21:30N 55°33' E 014°21'0 0.0
2015-Feb-20 20:30N 55°33' E 014°21'0 0.0
2015-Feb-20 19:30N 55°33' E 014°21'0 0.0
2015-Feb-20 18:30N 55°33' E 014°21'0 0.0
2015-Feb-20 17:24N 55°33' E 014°21'0 0.0
2015-Feb-20 16:30N 55°33' E 014°21'0 0.0
2015-Feb-20 15:30N 55°33' E 014°21'0 0.0
2015-Feb-20 14:30N 55°33' E 014°21'0 0.0
2015-Feb-20 13:18N 55°33' E 014°21'0 0.0
2015-Feb-20 12:30N 55°33' E 014°21'0 0.0
2015-Feb-20 11:30N 55°33' E 014°21'0 0.0
2015-Feb-20 10:30N 55°33' E 014°21'0 0.0
2015-Feb-20 09:30N 55°33' E 014°21'0 0.0
2015-Feb-20 08:30N 55°33' E 014°21'0 0.0
2015-Feb-20 07:30N 55°33' E 014°21'0 0.0
2015-Feb-20 06:30N 55°33' E 014°21'  
Track history (hours):
 
Tides and Currents Weather Stations Pressure Air Temp Water Temp Dewpoint Dewpoint Depression Visibility Wind Speed Wind Dir Waves Ship Positions

Linzy

Last reported at 2015-Mar-02 06:20 UTC. Time now 2015-Mar-02 07:27 UTC.
Position N 55°33' E 014°22'.

Length 15 m.

Type: Fishing. MMSI: 265507290.

Date/timePositionNaut miles runAvg speedWind from/ knotsBaromVisibWave heightAir tempDewpointWater temp
2015-Mar-02 06:20N 55°33' E 014°22'0 0.0
2015-Mar-02 05:26N 55°33' E 014°22'0 0.0
2015-Mar-02 04:32N 55°33' E 014°22'0 0.0
2015-Mar-02 03:26N 55°33' E 014°22'0 0.0
2015-Mar-02 02:32N 55°33' E 014°22'0 0.0
2015-Mar-02 01:32N 55°33' E 014°22'0 0.0
2015-Mar-02 00:20N 55°33' E 014°22'0 0.0
2015-Mar-01 23:26N 55°33' E 014°22'0 0.0
2015-Mar-01 22:32N 55°33' E 014°22'0 0.0
2015-Mar-01 21:14N 55°33' E 014°21'0 0.0
2015-Mar-01 20:32N 55°33' E 014°21'0 0.0
2015-Mar-01 19:32N 55°33' E 014°22'0 0.0
2015-Mar-01 18:32N 55°33' E 014°22'0 0.0
2015-Mar-01 16:08N 55°33' E 014°22'0 0.0
2015-Mar-01 15:26N 55°33' E 014°22'0 0.0
2015-Mar-01 14:20N 55°33' E 014°21'0 0.0
2015-Mar-01 13:26N 55°33' E 014°22'0 0.0
2015-Mar-01 10:20N 55°33' E 014°22'0 0.0
2015-Mar-01 09:32N 55°33' E 014°22'0 0.0
2015-Mar-01 08:14N 55°33' E 014°22'0 0.0
2015-Mar-01 07:32N 55°33' E 014°22'0 0.0
2015-Mar-01 06:32N 55°33' E 014°22'0 0.0
2015-Mar-01 05:26N 55°33' E 014°22'0 0.0
2015-Mar-01 04:32N 55°33' E 014°22'0 0.0
2015-Mar-01 02:26N 55°33' E 014°22'0 0.0
2015-Mar-01 01:14N 55°33' E 014°21'0 0.0
2015-Mar-01 00:26N 55°33' E 014°22'0 0.0
2015-Feb-28 23:32N 55°33' E 014°22'0 0.0
2015-Feb-28 22:26N 55°33' E 014°22'0 0.0
2015-Feb-28 20:32N 55°33' E 014°22'0 0.0
2015-Feb-28 19:26N 55°33' E 014°21'0 0.0
2015-Feb-28 17:20N 55°33' E 014°22'0 0.0
2015-Feb-28 16:32N 55°33' E 014°22'0 0.0
2015-Feb-28 15:32N 55°33' E 014°22'0 0.0
2015-Feb-28 14:32N 55°33' E 014°22'0 0.0
2015-Feb-28 13:32N 55°33' E 014°22'0 0.0
2015-Feb-28 12:26N 55°33' E 014°22'0 0.0
2015-Feb-28 11:32N 55°33' E 014°22'0 0.0
2015-Feb-28 02:26N 55°33' E 014°22'0 0.0
2015-Feb-28 01:32N 55°33' E 014°22'0 0.0
2015-Feb-27 21:32N 55°33' E 014°21'0 0.0
2015-Feb-27 20:32N 55°33' E 014°21'0 0.0
2015-Feb-27 19:26N 55°33' E 014°22'0 0.0
2015-Feb-27 18:32N 55°33' E 014°21'3 2.5
2015-Feb-27 17:31N 55°34' E 014°26'6 5.8
2015-Feb-27 16:25N 55°35' E 014°37'2 2.4
2015-Feb-27 15:33N 55°34' E 014°40'3 3.1
2015-Feb-27 14:31N 55°32' E 014°45'3 3.2
2015-Feb-27 13:32N 55°31' E 014°50'3 3.2
2015-Feb-27 12:27N 55°29' E 014°56'1 0.6
2015-Feb-27 10:29N 55°29' E 014°54'3 2.9
2015-Feb-27 09:30N 55°30' E 014°49'3 2.9
2015-Feb-27 08:32N 55°31' E 014°45'3 2.9
2015-Feb-27 07:31N 55°33' E 014°40'3 2.8
2015-Feb-27 06:33N 55°34' E 014°37'5 4.5
2015-Feb-27 05:31N 55°35' E 014°28'4 4.0
2015-Feb-27 04:30N 55°33' E 014°21'0 0.0
2015-Feb-27 03:30N 55°33' E 014°21'0 0.0
2015-Feb-27 02:30N 55°33' E 014°21'0 0.0
2015-Feb-27 01:30N 55°33' E 014°21'0 0.0
2015-Feb-27 00:30N 55°33' E 014°21'0 0.0
2015-Feb-26 23:30N 55°33' E 014°21'0 0.0
2015-Feb-26 22:30N 55°33' E 014°21'0 0.0
2015-Feb-26 21:30N 55°33' E 014°21'0 0.0
2015-Feb-26 20:30N 55°33' E 014°21'0 0.0
2015-Feb-26 19:30N 55°33' E 014°21'0 0.0
2015-Feb-26 18:30N 55°33' E 014°21'3 2.8
2015-Feb-26 17:32N 55°34' E 014°26'6 5.4
2015-Feb-26 16:30N 55°36' E 014°36'2 2.6
2015-Feb-26 15:33N 55°34' E 014°39'3 3.1
2015-Feb-26 14:33N 55°32' E 014°43'3 3.1
2015-Feb-26 13:33N 55°31' E 014°49'3 3.2
2015-Feb-26 12:32N 55°30' E 014°54'3 2.8
2015-Feb-26 11:27N 55°31' E 014°59'2 2.0
2015-Feb-26 10:23N 55°29' E 014°56'2 2.8
2015-Feb-26 09:33N 55°30' E 014°52'3 3.0
2015-Feb-26 08:31N 55°31' E 014°47'3 3.2
2015-Feb-26 07:32N 55°32' E 014°42'3 2.9
2015-Feb-26 06:33N 55°34' E 014°38'4 4.2
2015-Feb-26 05:33N 55°35' E 014°31'6 4.8
2015-Feb-26 04:23N 55°33' E 014°21'0 0.0
2015-Feb-26 03:29N 55°33' E 014°21'0 0.0
2015-Feb-26 02:29N 55°33' E 014°21'0 0.0
2015-Feb-25 01:29N 55°33' E 014°21'0 0.0
2015-Feb-25 00:23N 55°33' E 014°21'0 0.0
2015-Feb-24 23:23N 55°33' E 014°21'0 0.0
2015-Feb-24 22:23N 55°33' E 014°21'0 0.0
2015-Feb-24 21:29N 55°33' E 014°21'0 0.0
2015-Feb-24 20:29N 55°33' E 014°21'0 0.0
2015-Feb-24 19:29N 55°33' E 014°21'0 0.0
2015-Feb-24 18:29N 55°33' E 014°21'0 0.0
2015-Feb-24 17:29N 55°33' E 014°21'0 0.0
2015-Feb-24 16:29N 55°33' E 014°21'0 0.0
2015-Feb-24 15:29N 55°33' E 014°21'0 0.0
2015-Feb-24 14:29N 55°33' E 014°21'0 0.0
2015-Feb-24 13:29N 55°33' E 014°21'0 0.0
2015-Feb-24 12:29N 55°33' E 014°21'0 0.0
2015-Feb-24 11:17N 55°33' E 014°21'0 0.0
2015-Feb-24 10:11N 55°33' E 014°21'0 0.0
2015-Feb-24 09:17N 55°33' E 014°21'0 0.0
2015-Feb-24 08:29N 55°33' E 014°21'0 0.0
2015-Feb-24 07:17N 55°33' E 014°21'0 0.0
2015-Feb-24 06:23N 55°33' E 014°21'0 0.0
2015-Feb-24 05:23N 55°33' E 014°21'0 0.0
2015-Feb-24 04:29N 55°33' E 014°21'0 0.0
2015-Feb-24 03:29N 55°33' E 014°21'0 0.0
2015-Feb-24 02:23N 55°33' E 014°21'0 0.0
2015-Feb-23 22:23N 55°33' E 014°21'0 0.0
2015-Feb-23 21:23N 55°33' E 014°21'0 0.0
2015-Feb-23 20:29N 55°33' E 014°21'0 0.0
2015-Feb-23 19:23N 55°33' E 014°21'0 0.0
2015-Feb-23 18:29N 55°33' E 014°21'0 0.0
2015-Feb-23 17:11N 55°33' E 014°21'0 0.0
2015-Feb-23 16:23N 55°33' E 014°21'0 0.0
2015-Feb-23 15:17N 55°33' E 014°21'0 0.0
2015-Feb-23 14:17N 55°33' E 014°21'0 0.0
2015-Feb-23 12:23N 55°33' E 014°21'0 0.0
2015-Feb-23 11:29N 55°33' E 014°21'0 0.0
2015-Feb-23 10:29N 55°33' E 014°21'0 0.0
2015-Feb-23 09:29N 55°33' E 014°21'0 0.0
2015-Feb-23 08:29N 55°33' E 014°21'0 0.0
2015-Feb-23 07:29N 55°33' E 014°21'0 0.0
2015-Feb-23 06:23N 55°33' E 014°21'0 0.0
2015-Feb-23 05:29N 55°33' E 014°21'0 0.0
2015-Feb-23 04:29N 55°33' E 014°21'0 0.0
2015-Feb-23 03:29N 55°33' E 014°21'0 0.0
2015-Feb-23 02:29N 55°33' E 014°21'0 0.0
2015-Feb-23 01:29N 55°33' E 014°21'0 0.0
2015-Feb-23 00:29N 55°33' E 014°21'0 0.0
2015-Feb-22 23:23N 55°33' E 014°21'0 0.0
2015-Feb-22 22:23N 55°33' E 014°21'0 0.0
2015-Feb-22 21:23N 55°33' E 014°21'0 0.0
2015-Feb-22 20:29N 55°33' E 014°21'0 0.0
2015-Feb-22 19:29N 55°33' E 014°21'0 0.0
2015-Feb-22 18:29N 55°33' E 014°21'0 0.0
2015-Feb-22 17:29N 55°33' E 014°21'0 0.0
2015-Feb-22 16:29N 55°33' E 014°21'0 0.0
2015-Feb-22 15:29N 55°33' E 014°21'0 0.0
2015-Feb-22 14:29N 55°33' E 014°21'0 0.0
2015-Feb-22 13:29N 55°33' E 014°21'0 0.0
2015-Feb-22 12:23N 55°33' E 014°21'0 0.0
2015-Feb-22 11:29N 55°33' E 014°21'0 0.0
2015-Feb-22 10:30N 55°33' E 014°21'0 0.0
2015-Feb-22 09:23N 55°33' E 014°21'0 0.0
2015-Feb-22 08:29N 55°33' E 014°21'0 0.0
2015-Feb-22 07:30N 55°33' E 014°21'0 0.0
2015-Feb-22 06:24N 55°33' E 014°21'0 0.0
2015-Feb-22 05:30N 55°33' E 014°21'0 0.0
2015-Feb-22 04:30N 55°33' E 014°21'0 0.0
2015-Feb-22 03:30N 55°33' E 014°21'0 0.0
2015-Feb-22 02:30N 55°33' E 014°21'0 0.0
2015-Feb-21 01:30N 55°33' E 014°21'0 0.0
2015-Feb-21 00:30N 55°33' E 014°21'0 0.0
2015-Feb-20 23:30N 55°33' E 014°21'0 0.0
2015-Feb-20 22:24N 55°33' E 014°21'0 0.0
2015-Feb-20 21:30N 55°33' E 014°21'0 0.0
2015-Feb-20 20:30N 55°33' E 014°21'0 0.0
2015-Feb-20 19:30N 55°33' E 014°21'0 0.0
2015-Feb-20 18:30N 55°33' E 014°21'0 0.0
2015-Feb-20 17:24N 55°33' E 014°21'0 0.0
2015-Feb-20 16:30N 55°33' E 014°21'0 0.0
2015-Feb-20 15:30N 55°33' E 014°21'0 0.0
2015-Feb-20 14:30N 55°33' E 014°21'0 0.0
2015-Feb-20 13:18N 55°33' E 014°21'0 0.0
2015-Feb-20 12:30N 55°33' E 014°21'0 0.0
2015-Feb-20 11:30N 55°33' E 014°21'0 0.0
2015-Feb-20 10:30N 55°33' E 014°21'0 0.0
2015-Feb-20 09:30N 55°33' E 014°21'0 0.0
2015-Feb-20 08:30N 55°33' E 014°21'0 0.0
2015-Feb-20 07:30N 55°33' E 014°21'0 0.0
2015-Feb-20 06:30N 55°33' E 014°21'  

Dump ship's entire track history